Terminal Aerodrome Forecast
Issued by NWS

Home | Current Version | Previous Version | Graphics & Text | Print | Product List | Glossary On
Versions: 1 2 3 4 5 6 7 8 9 10 11 12 13 14 15
850
FTUS41 KCLE 161132
TAFFDY
TAF
KFDY 161132Z 1612/1712 24009KT P6SM BKN015 BKN020
      TEMPO 1614/1616 SCT015 SCT020
     FM161600 25009KT P6SM BKN035
      TEMPO 1618/1622 BKN030
     FM162200 25007KT P6SM BKN025
     FM171100 24005KT P6SM BKN050=

USA.gov is the U.S. government's official web portal to all federal, state and local government web resources and services.